Time;durP1;ratioP1;P1;durP2;ratioP2;P2;SDS_P1;SDS_P2;PMS_P1;PMS_P2;Temp;Humidity;BMP_temperature;BMP_pressure;BME280_temperature;BME280_humidity;BME280_pressure;Samples;Min_cycle;Max_cycle;Signal;HPM_P1;HPM_P2
2021/09/05 00:01:01;;;;;;;7.95;4.45;;;;;;;;;;4977545;28;20082;-68
2021/09/05 00:03:32;;;;;;;7.40;5.10;;;;;;;;;;4983761;28;20022;-70
2021/09/05 00:05:58;;;;;;;7.88;5.00;;;;;;;;;;4976870;28;20039;-69
2021/09/05 00:08:24;;;;;;;7.03;4.90;;;;;;;;;;4971966;28;20022;-67
2021/09/05 00:10:54;;;;;;;11.98;5.05;;;;;;;;;;4972771;28;20026;-65
2021/09/05 00:13:20;;;;;;;8.65;5.15;;;;;;;;;;4974606;28;20034;-69
2021/09/05 00:15:46;;;;;;;9.00;4.93;;;;;;;;;;4974686;28;20019;-70
2021/09/05 00:18:13;;;;;;;6.85;4.50;;;;;;;;;;4975056;28;20037;-69
2021/09/05 00:20:39;;;;;;;7.72;5.07;;;;;;;;;;4973338;28;20034;-69
2021/09/05 00:23:09;;;;;;;8.65;5.00;;;;;;;;;;4964606;28;20113;-72
2021/09/05 00:25:35;;;;;;;8.18;5.07;;;;;;;;;;4968748;28;20059;-69
2021/09/05 00:28:01;;;;;;;7.75;4.68;;;;;;;;;;4974500;28;20093;-68
2021/09/05 00:30:27;;;;;;;7.43;5.03;;;;;;;;;;4974516;28;20033;-67
2021/09/05 00:32:53;;;;;;;7.85;5.07;;;;;;;;;;4972283;28;20122;-64
2021/09/05 00:35:19;;;;;;;8.60;4.95;;;;;;;;;;4972725;28;20027;-68
2021/09/05 00:37:46;;;;;;;7.35;4.95;;;;;;;;;;4973882;28;20043;-70
2021/09/05 00:40:12;;;;;;;7.95;5.35;;;;;;;;;;4972719;28;20389;-64
2021/09/05 00:42:39;;;;;;;5.63;4.55;;;;;;;;;;4973972;28;20027;-69
2021/09/05 00:45:05;;;;;;;7.43;4.68;;;;;;;;;;4974160;28;20038;-69
2021/09/05 00:47:31;;;;;;;7.20;5.07;;;;;;;;;;4970041;28;20035;-69
2021/09/05 00:50:12;;;;;;;8.00;4.97;;;;;;;;;;4995361;28;20018;-70
2021/09/05 00:52:43;;;;;;;9.57;5.32;;;;;;;;;;4965689;28;20772;-69
2021/09/05 00:55:09;;;;;;;7.20;4.82;;;;;;;;;;4973682;28;20031;-67
2021/09/05 00:57:35;;;;;;;6.78;4.88;;;;;;;;;;4973621;28;20058;-67
2021/09/05 01:00:02;;;;;;;7.50;4.93;;;;;;;;;;4987355;28;20015;-63
2021/09/05 01:02:28;;;;;;;7.88;5.00;;;;;;;;;;4962270;28;20406;-66
2021/09/05 01:04:54;;;;;;;9.05;4.70;;;;;;;;;;4970276;28;20029;-64
2021/09/05 01:07:20;;;;;;;7.35;4.90;;;;;;;;;;4976479;28;20472;-70
2021/09/05 01:09:46;;;;;;;7.03;4.80;;;;;;;;;;4976178;28;20062;-67
2021/09/05 01:12:12;;;;;;;6.78;5.07;;;;;;;;;;4973007;28;20113;-70
2021/09/05 01:14:38;;;;;;;9.85;5.15;;;;;;;;;;4973461;28;20030;-71
2021/09/05 01:17:04;;;;;;;9.27;5.07;;;;;;;;;;4981370;28;20378;-66
2021/09/05 01:19:30;;;;;;;8.57;5.38;;;;;;;;;;4973348;28;20026;-70
2021/09/05 01:21:57;;;;;;;7.20;4.57;;;;;;;;;;4971550;28;20447;-64
2021/09/05 01:24:23;;;;;;;8.35;4.55;;;;;;;;;;4973494;28;20019;-70
2021/09/05 01:26:50;;;;;;;7.25;4.45;;;;;;;;;;4973012;28;20497;-71
2021/09/05 01:29:17;;;;;;;8.02;5.40;;;;;;;;;;4973538;28;20068;-68
2021/09/05 01:31:43;;;;;;;14.60;4.85;;;;;;;;;;4971568;28;20633;-66
2021/09/05 01:34:09;;;;;;;9.98;5.10;;;;;;;;;;4969640;28;20034;-70
2021/09/05 01:36:37;;;;;;;9.75;5.03;;;;;;;;;;4985525;28;20094;-71
2021/09/05 01:39:03;;;;;;;10.85;6.00;;;;;;;;;;4973555;28;20432;-69
2021/09/05 01:41:29;;;;;;;6.13;5.10;;;;;;;;;;4971756;28;20109;-69
2021/09/05 01:44:09;;;;;;;6.57;5.00;;;;;;;;;;4976436;28;20035;-70
2021/09/05 01:46:36;;;;;;;7.10;4.90;;;;;;;;;;4969316;28;20050;-69
2021/09/05 01:49:02;;;;;;;9.90;4.78;;;;;;;;;;4964585;28;20532;-70
2021/09/05 01:51:28;;;;;;;6.18;4.90;;;;;;;;;;4971291;28;20031;-70
2021/09/05 01:53:54;;;;;;;6.28;4.78;;;;;;;;;;4973232;28;20030;-63
2021/09/05 01:56:20;;;;;;;6.35;4.50;;;;;;;;;;4972747;28;20031;-65
2021/09/05 01:58:46;;;;;;;8.40;4.95;;;;;;;;;;4967196;28;20413;-66
2021/09/05 02:01:12;;;;;;;5.78;4.35;;;;;;;;;;4972385;28;20481;-69
2021/09/05 02:03:39;;;;;;;8.23;4.57;;;;;;;;;;4977881;28;20460;-70
2021/09/05 02:06:05;;;;;;;10.93;5.05;;;;;;;;;;4973121;28;20118;-64
2021/09/05 02:08:31;;;;;;;6.88;4.55;;;;;;;;;;4971010;28;20038;-65
2021/09/05 02:10:57;;;;;;;8.82;4.95;;;;;;;;;;4965135;28;20051;-69
2021/09/05 02:13:23;;;;;;;7.88;4.68;;;;;;;;;;4967107;28;20113;-65
2021/09/05 02:15:50;;;;;;;10.07;4.75;;;;;;;;;;4972048;28;20030;-70
2021/09/05 02:18:16;;;;;;;9.77;5.20;;;;;;;;;;4985695;28;20058;-70
2021/09/05 02:20:42;;;;;;;7.03;4.80;;;;;;;;;;4972927;28;20026;-70
2021/09/05 02:23:09;;;;;;;7.20;4.40;;;;;;;;;;4973073;28;20055;-69
2021/09/05 02:25:35;;;;;;;5.68;4.50;;;;;;;;;;4966651;28;20504;-68
2021/09/05 02:28:17;;;;;;;9.30;4.70;;;;;;;;;;4980070;28;20031;-69
2021/09/05 02:30:43;;;;;;;7.20;4.70;;;;;;;;;;4960894;28;20019;-68
2021/09/05 02:33:09;;;;;;;5.95;4.47;;;;;;;;;;4970764;28;20086;-70
2021/09/05 02:35:36;;;;;;;6.70;4.40;;;;;;;;;;4972974;28;20034;-67
2021/09/05 02:38:02;;;;;;;7.10;4.45;;;;;;;;;;4972208;28;20046;-69
2021/09/05 02:40:28;;;;;;;9.10;4.47;;;;;;;;;;4967956;28;20035;-67
2021/09/05 02:43:01;;;;;;;5.53;4.38;;;;;;;;;;4974867;28;20019;-67
2021/09/05 02:45:27;;;;;;;7.10;4.75;;;;;;;;;;4980545;28;20027;-63
2021/09/05 02:47:53;;;;;;;6.53;5.18;;;;;;;;;;4966677;28;20122;-66
2021/09/05 02:50:19;;;;;;;6.70;4.57;;;;;;;;;;4984058;28;20023;-69
2021/09/05 02:52:45;;;;;;;6.20;4.32;;;;;;;;;;4981760;28;20227;-69
2021/09/05 02:55:13;;;;;;;5.60;4.32;;;;;;;;;;4974518;28;20085;-66
2021/09/05 02:57:39;;;;;;;8.48;4.47;;;;;;;;;;4975648;28;20037;-67
2021/09/05 03:00:06;;;;;;;5.85;4.38;;;;;;;;;;4967985;28;20396;-68
2021/09/05 03:02:32;;;;;;;6.63;4.50;;;;;;;;;;4974289;28;20030;-69
2021/09/05 03:04:58;;;;;;;6.68;4.70;;;;;;;;;;4973292;28;20725;-66
2021/09/05 03:07:24;;;;;;;7.55;4.65;;;;;;;;;;4964901;28;20027;-69
2021/09/05 03:09:50;;;;;;;7.72;4.70;;;;;;;;;;4975859;28;20047;-64
2021/09/05 03:12:17;;;;;;;10.73;5.13;;;;;;;;;;4989272;28;20034;-67
2021/09/05 03:14:43;;;;;;;10.38;4.80;;;;;;;;;;4975178;28;20029;-64
2021/09/05 03:17:09;;;;;;;5.85;4.78;;;;;;;;;;4975386;28;20023;-62
2021/09/05 03:19:35;;;;;;;6.15;4.57;;;;;;;;;;4975825;28;20034;-63
2021/09/05 03:22:01;;;;;;;6.45;4.90;;;;;;;;;;4975556;28;20030;-70
2021/09/05 03:24:28;;;;;;;10.18;5.05;;;;;;;;;;4975635;28;20022;-63
2021/09/05 03:26:54;;;;;;;7.35;4.72;;;;;;;;;;4975523;28;20057;-70
2021/09/05 03:29:20;;;;;;;8.23;5.00;;;;;;;;;;4974806;28;20019;-63
2021/09/05 03:31:46;;;;;;;7.80;5.07;;;;;;;;;;4973780;28;20043;-63
2021/09/05 03:34:12;;;;;;;8.95;4.70;;;;;;;;;;4975173;28;20168;-65
2021/09/05 03:36:38;;;;;;;6.75;5.10;;;;;;;;;;4966298;28;20035;-63
2021/09/05 03:39:05;;;;;;;7.25;5.28;;;;;;;;;;4975039;28;20030;-63
2021/09/05 03:41:31;;;;;;;9.23;5.10;;;;;;;;;;4973699;28;20027;-69
2021/09/05 03:43:57;;;;;;;6.78;4.97;;;;;;;;;;4975107;28;20031;-69
2021/09/05 03:46:23;;;;;;;8.27;5.10;;;;;;;;;;4966816;28;20138;-70
2021/09/05 03:48:49;;;;;;;6.53;5.00;;;;;;;;;;4974503;28;20082;-69
2021/09/05 03:51:15;;;;;;;9.35;5.28;;;;;;;;;;4974858;28;20025;-70
2021/09/05 03:53:41;;;;;;;7.07;5.25;;;;;;;;;;4975072;28;20501;-69
2021/09/05 03:56:07;;;;;;;6.78;5.05;;;;;;;;;;4970233;28;20031;-68
2021/09/05 03:58:33;;;;;;;6.85;5.30;;;;;;;;;;4961648;28;20105;-67
2021/09/05 04:00:59;;;;;;;7.45;5.53;;;;;;;;;;4974832;28;20022;-63
2021/09/05 04:03:33;;;;;;;9.45;5.38;;;;;;;;;;4974693;28;20035;-70
2021/09/05 04:06:03;;;;;;;7.78;5.00;;;;;;;;;;4986536;28;20022;-69
2021/09/05 04:08:31;;;;;;;8.98;5.40;;;;;;;;;;4974387;28;20085;-63
2021/09/05 04:10:57;;;;;;;8.00;5.25;;;;;;;;;;4958638;28;20026;-69
2021/09/05 04:13:23;;;;;;;7.05;5.03;;;;;;;;;;4967160;28;20035;-68
2021/09/05 04:15:49;;;;;;;9.75;5.40;;;;;;;;;;4974576;28;20074;-69
2021/09/05 04:18:16;;;;;;;10.88;5.95;;;;;;;;;;4970275;28;20030;-67
2021/09/05 04:20:42;;;;;;;10.88;5.70;;;;;;;;;;4974470;28;20023;-69
2021/09/05 04:23:08;;;;;;;10.48;5.45;;;;;;;;;;4976239;28;20022;-69
2021/09/05 04:25:35;;;;;;;8.68;5.35;;;;;;;;;;4973019;28;20436;-69
2021/09/05 04:28:01;;;;;;;7.57;5.30;;;;;;;;;;4979914;28;20030;-63
2021/09/05 04:30:29;;;;;;;10.23;5.70;;;;;;;;;;4981715;28;20086;-70
2021/09/05 04:32:55;;;;;;;13.13;5.35;;;;;;;;;;4969175;28;20069;-70
2021/09/05 04:35:23;;;;;;;8.32;5.22;;;;;;;;;;4964196;28;20034;-68
2021/09/05 04:37:49;;;;;;;7.82;5.30;;;;;;;;;;4974369;28;20140;-66
2021/09/05 04:40:15;;;;;;;9.07;5.13;;;;;;;;;;4974275;28;20022;-70
2021/09/05 04:42:41;;;;;;;10.07;5.18;;;;;;;;;;4964379;28;20441;-69
2021/09/05 04:45:10;;;;;;;7.20;4.93;;;;;;;;;;4955703;28;20070;-69
2021/09/05 04:47:36;;;;;;;7.05;5.18;;;;;;;;;;4972828;28;20097;-64
2021/09/05 04:50:02;;;;;;;12.35;5.38;;;;;;;;;;4973723;28;20480;-69
2021/09/05 04:52:28;;;;;;;14.15;5.55;;;;;;;;;;4980176;28;20463;-67
2021/09/05 04:54:54;;;;;;;7.15;5.15;;;;;;;;;;4973762;28;20026;-69
2021/09/05 04:57:20;;;;;;;8.88;5.15;;;;;;;;;;4972449;28;20053;-69
2021/09/05 04:59:46;;;;;;;10.25;5.50;;;;;;;;;;4973747;28;20026;-62
2021/09/05 05:02:15;;;;;;;7.88;5.43;;;;;;;;;;4964442;28;20122;-69
2021/09/05 05:04:41;;;;;;;9.90;5.43;;;;;;;;;;4962755;28;20019;-67
2021/09/05 05:07:07;;;;;;;10.75;5.22;;;;;;;;;;4969852;28;20127;-63
2021/09/05 05:09:43;;;;;;;11.95;5.60;;;;;;;;;;4975974;28;20026;-70
2021/09/05 05:12:09;;;;;;;8.05;5.70;;;;;;;;;;4962746;28;20485;-64
2021/09/05 05:14:35;;;;;;;8.73;5.05;;;;;;;;;;4974811;28;20105;-75
2021/09/05 05:17:01;;;;;;;10.13;5.45;;;;;;;;;;4950987;28;20067;-68
2021/09/05 05:19:27;;;;;;;11.18;5.88;;;;;;;;;;4974521;28;20106;-66
2021/09/05 05:21:53;;;;;;;13.45;5.38;;;;;;;;;;4972081;28;20029;-68
2021/09/05 05:24:21;;;;;;;11.23;5.53;;;;;;;;;;4973046;28;20380;-65
2021/09/05 05:26:47;;;;;;;9.73;5.63;;;;;;;;;;4973140;28;20033;-66
2021/09/05 05:29:13;;;;;;;7.22;5.20;;;;;;;;;;4972054;28;20034;-67
2021/09/05 05:31:39;;;;;;;9.50;5.50;;;;;;;;;;4964744;28;20043;-66
2021/09/05 05:34:05;;;;;;;10.77;5.22;;;;;;;;;;4970407;28;21446;-67
2021/09/05 05:36:33;;;;;;;10.32;5.68;;;;;;;;;;4972627;28;20069;-67
2021/09/05 05:38:59;;;;;;;9.75;6.25;;;;;;;;;;4972851;28;20033;-67
2021/09/05 05:41:25;;;;;;;11.23;6.20;;;;;;;;;;4972255;28;20501;-68
2021/09/05 05:43:51;;;;;;;9.73;5.40;;;;;;;;;;4972468;28;20480;-80
2021/09/05 05:46:17;;;;;;;16.65;5.70;;;;;;;;;;4966423;28;20049;-81
2021/09/05 05:48:43;;;;;;;11.20;5.07;;;;;;;;;;4972954;28;20043;-76
2021/09/05 05:51:09;;;;;;;12.00;5.35;;;;;;;;;;4972184;28;20027;-85
2021/09/05 05:53:35;;;;;;;11.10;5.40;;;;;;;;;;4972965;28;20500;-89
2021/09/05 05:56:02;;;;;;;14.32;5.97;;;;;;;;;;4971507;28;20081;-64
2021/09/05 05:58:28;;;;;;;17.15;5.85;;;;;;;;;;4969152;28;20031;-62
2021/09/05 06:00:54;;;;;;;14.52;5.90;;;;;;;;;;4970837;28;20039;-64
2021/09/05 06:03:21;;;;;;;24.08;6.60;;;;;;;;;;4972727;28;20054;-67
2021/09/05 06:05:48;;;;;;;17.48;7.65;;;;;;;;;;4967546;28;20377;-64
2021/09/05 06:08:14;;;;;;;14.68;6.30;;;;;;;;;;4972386;28;20049;-73
2021/09/05 06:10:40;;;;;;;12.73;6.15;;;;;;;;;;4973215;28;20448;-64
2021/09/05 06:13:06;;;;;;;15.27;6.88;;;;;;;;;;4973013;28;20119;-66
2021/09/05 06:15:32;;;;;;;9.55;6.82;;;;;;;;;;4967581;28;20062;-76
2021/09/05 06:17:58;;;;;;;11.32;6.30;;;;;;;;;;4973007;28;20057;-67
2021/09/05 06:20:24;;;;;;;10.02;7.00;;;;;;;;;;4974195;28;20031;-64
2021/09/05 06:22:50;;;;;;;10.85;6.20;;;;;;;;;;4974733;28;20381;-66
2021/09/05 06:25:17;;;;;;;11.18;6.10;;;;;;;;;;4974901;28;20035;-65
2021/09/05 06:27:43;;;;;;;6.78;5.18;;;;;;;;;;4974690;28;20045;-68
2021/09/05 06:30:09;;;;;;;8.98;5.28;;;;;;;;;;4975375;28;20022;-66
2021/09/05 06:32:35;;;;;;;11.63;5.85;;;;;;;;;;4976156;28;20058;-67
2021/09/05 06:35:01;;;;;;;12.32;6.15;;;;;;;;;;4975721;28;20030;-66
2021/09/05 06:37:27;;;;;;;13.60;5.82;;;;;;;;;;4975445;28;20042;-66
2021/09/05 06:39:53;;;;;;;10.13;4.90;;;;;;;;;;4979678;28;20029;-68
2021/09/05 06:42:19;;;;;;;7.18;5.03;;;;;;;;;;4977599;28;20026;-65
2021/09/05 06:44:45;;;;;;;8.50;5.10;;;;;;;;;;4973111;28;20540;-64
2021/09/05 06:47:12;;;;;;;8.05;4.88;;;;;;;;;;4971648;28;20042;-64
2021/09/05 06:49:40;;;;;;;6.68;4.60;;;;;;;;;;4975740;28;20085;-67
2021/09/05 06:52:06;;;;;;;10.00;5.18;;;;;;;;;;4975520;28;20030;-67
2021/09/05 06:54:32;;;;;;;6.85;4.47;;;;;;;;;;4975667;28;20518;-69
2021/09/05 06:56:58;;;;;;;7.13;4.53;;;;;;;;;;4975983;28;20492;-67
2021/09/05 06:59:24;;;;;;;13.18;4.78;;;;;;;;;;4975868;28;20026;-67
2021/09/05 07:01:50;;;;;;;7.28;4.75;;;;;;;;;;4975736;28;20051;-68
2021/09/05 07:04:16;;;;;;;7.13;4.80;;;;;;;;;;4971076;28;20030;-69
2021/09/05 07:06:44;;;;;;;9.80;4.90;;;;;;;;;;4972878;28;20018;-68
2021/09/05 07:09:10;;;;;;;10.77;5.40;;;;;;;;;;4970562;28;20481;-68
2021/09/05 07:11:36;;;;;;;9.35;5.18;;;;;;;;;;4973429;28;20374;-70
2021/09/05 07:14:02;;;;;;;11.02;5.50;;;;;;;;;;4973581;28;20385;-74
2021/09/05 07:16:28;;;;;;;8.70;4.85;;;;;;;;;;4980200;28;20029;-68
2021/09/05 07:18:55;;;;;;;7.60;4.57;;;;;;;;;;4978023;28;20067;-71
2021/09/05 07:21:21;;;;;;;8.32;4.90;;;;;;;;;;4974489;28;20027;-69
2021/09/05 07:23:47;;;;;;;8.20;5.00;;;;;;;;;;4974262;28;20030;-62
2021/09/05 07:26:15;;;;;;;9.68;4.80;;;;;;;;;;4972020;28;20038;-72
2021/09/05 07:28:41;;;;;;;19.05;5.68;;;;;;;;;;4974655;28;20034;-69
2021/09/05 07:31:07;;;;;;;8.70;4.85;;;;;;;;;;4973951;28;20127;-64
2021/09/05 07:33:33;;;;;;;7.20;4.90;;;;;;;;;;4972642;28;20446;-63
2021/09/05 07:35:59;;;;;;;11.95;4.78;;;;;;;;;;4971578;28;20502;-68
2021/09/05 07:38:26;;;;;;;7.72;4.55;;;;;;;;;;4970216;28;20023;-67
2021/09/05 07:40:52;;;;;;;5.78;4.30;;;;;;;;;;4968662;28;20081;-66
2021/09/05 07:43:18;;;;;;;8.52;4.95;;;;;;;;;;4974981;28;20031;-71
2021/09/05 07:45:44;;;;;;;7.32;4.90;;;;;;;;;;4975061;28;20110;-68
2021/09/05 07:48:10;;;;;;;10.80;5.28;;;;;;;;;;4974675;28;20063;-62
2021/09/05 07:50:36;;;;;;;5.50;4.10;;;;;;;;;;4975024;28;20023;-69
2021/09/05 07:53:02;;;;;;;6.10;4.50;;;;;;;;;;4974848;28;20038;-69
2021/09/05 07:55:28;;;;;;;7.55;4.22;;;;;;;;;;4974828;28;20440;-71
2021/09/05 07:57:54;;;;;;;5.65;4.00;;;;;;;;;;4975043;28;20030;-79
2021/09/05 08:00:20;;;;;;;6.88;4.40;;;;;;;;;;4974795;28;20030;-67
2021/09/05 08:02:47;;;;;;;7.88;4.30;;;;;;;;;;4975002;28;20030;-63
2021/09/05 08:05:13;;;;;;;8.90;4.47;;;;;;;;;;4974466;28;20031;-70
2021/09/05 08:07:39;;;;;;;7.03;4.00;;;;;;;;;;4974609;28;20504;-68
2021/09/05 08:10:05;;;;;;;7.65;4.40;;;;;;;;;;4974558;28;20031;-77
2021/09/05 08:12:31;;;;;;;8.57;4.78;;;;;;;;;;4974671;28;20036;-78
2021/09/05 08:14:58;;;;;;;7.15;4.07;;;;;;;;;;4970184;28;20031;-71
2021/09/05 08:17:24;;;;;;;7.15;4.10;;;;;;;;;;4974449;28;20031;-62
2021/09/05 08:19:50;;;;;;;6.57;4.28;;;;;;;;;;4974513;28;20023;-76
2021/09/05 08:22:19;;;;;;;7.10;3.80;;;;;;;;;;4973767;28;20034;-71
2021/09/05 08:24:45;;;;;;;6.60;4.32;;;;;;;;;;4974578;28;20054;-61
2021/09/05 08:27:12;;;;;;;6.78;4.45;;;;;;;;;;4974186;28;20049;-77
2021/09/05 08:29:38;;;;;;;7.25;4.43;;;;;;;;;;4974468;28;20098;-74
2021/09/05 08:32:04;;;;;;;7.07;4.13;;;;;;;;;;4973932;28;20051;-76
2021/09/05 08:34:34;;;;;;;7.40;4.38;;;;;;;;;;4974336;28;20018;-65
2021/09/05 08:37:03;;;;;;;7.20;4.68;;;;;;;;;;4974145;28;20473;-68
2021/09/05 08:39:29;;;;;;;8.48;4.30;;;;;;;;;;4973976;28;20037;-63
2021/09/05 08:41:56;;;;;;;8.88;4.57;;;;;;;;;;4973669;28;20019;-73
2021/09/05 08:44:23;;;;;;;11.07;4.85;;;;;;;;;;4973603;28;20042;-62
2021/09/05 08:46:49;;;;;;;7.13;4.65;;;;;;;;;;4974004;28;20038;-61
2021/09/05 08:49:18;;;;;;;19.42;5.20;;;;;;;;;;4973931;28;20026;-61
2021/09/05 08:51:44;;;;;;;17.42;5.35;;;;;;;;;;4973834;28;20034;-73
2021/09/05 08:54:11;;;;;;;5.15;4.00;;;;;;;;;;4973786;28;20034;-73
2021/09/05 08:56:37;;;;;;;7.70;4.90;;;;;;;;;;4973747;28;20043;-62
2021/09/05 08:59:03;;;;;;;8.95;5.13;;;;;;;;;;4973694;28;20026;-66
2021/09/05 09:01:29;;;;;;;6.35;4.57;;;;;;;;;;4973776;28;20110;-62
2021/09/05 09:04:06;;;;;;;7.13;5.00;;;;;;;;;;4973514;28;20015;-62
2021/09/05 09:06:36;;;;;;;7.05;4.30;;;;;;;;;;4973217;28;20110;-66
2021/09/05 09:09:03;;;;;;;7.07;5.07;;;;;;;;;;4973620;28;20033;-61
2021/09/05 09:11:46;;;;;;;11.23;4.32;;;;;;;;;;4973645;28;20027;-61
2021/09/05 09:14:12;;;;;;;7.90;4.50;;;;;;;;;;4973041;28;20039;-62
2021/09/05 09:16:38;;;;;;;13.60;5.00;;;;;;;;;;4973773;28;20023;-63
2021/09/05 09:19:05;;;;;;;26.25;5.60;;;;;;;;;;4973271;28;20031;-70
2021/09/05 09:21:37;;;;;;;7.68;4.50;;;;;;;;;;4973519;28;20039;-68
2021/09/05 09:24:19;;;;;;;12.30;5.00;;;;;;;;;;4973261;28;20523;-61
2021/09/05 09:26:57;;;;;;;6.68;4.72;;;;;;;;;;4973027;28;20190;-67
2021/09/05 09:29:23;;;;;;;6.25;4.32;;;;;;;;;;4971454;28;20027;-70
2021/09/05 09:31:56;;;;;;;5.85;4.40;;;;;;;;;;4973099;28;20573;-66
2021/09/05 09:34:23;;;;;;;15.52;4.82;;;;;;;;;;4973456;28;20023;-77
2021/09/05 09:36:54;;;;;;;7.30;4.57;;;;;;;;;;4973062;28;20026;-68
2021/09/05 09:39:21;;;;;;;6.72;4.45;;;;;;;;;;4972079;28;20081;-61
2021/09/05 09:41:47;;;;;;;5.65;4.50;;;;;;;;;;4972046;28;20045;-68
2021/09/05 09:44:16;;;;;;;6.20;4.63;;;;;;;;;;4968568;28;20528;-69
2021/09/05 09:46:46;;;;;;;6.45;4.30;;;;;;;;;;4967268;28;20031;-70
2021/09/05 09:49:13;;;;;;;6.50;4.50;;;;;;;;;;4973103;28;20089;-62
2021/09/05 09:51:39;;;;;;;6.38;4.47;;;;;;;;;;4977979;28;20361;-65
2021/09/05 09:54:06;;;;;;;5.88;4.50;;;;;;;;;;4966924;28;20030;-68
2021/09/05 09:56:32;;;;;;;7.85;4.70;;;;;;;;;;4975894;28;20027;-68
2021/09/05 09:59:00;;;;;;;9.18;4.85;;;;;;;;;;4974928;28;20030;-63
2021/09/05 10:01:29;;;;;;;8.10;4.97;;;;;;;;;;4974296;28;20085;-64
2021/09/05 10:03:57;;;;;;;9.27;4.82;;;;;;;;;;4974378;28;20031;-67
2021/09/05 10:06:24;;;;;;;10.35;4.70;;;;;;;;;;4975746;28;20389;-64
2021/09/05 10:08:53;;;;;;;8.75;4.60;;;;;;;;;;4976296;28;20097;-66
2021/09/05 10:11:20;;;;;;;7.65;4.78;;;;;;;;;;4976176;28;20055;-66
2021/09/05 10:13:47;;;;;;;6.60;4.30;;;;;;;;;;4975349;28;20045;-65
2021/09/05 10:16:13;;;;;;;6.05;4.55;;;;;;;;;;4965713;28;20070;-67
2021/09/05 10:18:47;;;;;;;7.63;4.55;;;;;;;;;;4958362;28;20089;-62
2021/09/05 10:21:13;;;;;;;;;;;;;;;;;;4958351;28;20118;-69
2021/09/05 10:23:39;;;;;;;7.95;4.63;;;;;;;;;;4976410;28;19997;-64
2021/09/05 10:26:07;;;;;;;5.72;4.63;;;;;;;;;;4976375;28;20856;-65
2021/09/05 10:28:34;;;;;;;7.18;4.70;;;;;;;;;;4976131;28;20049;-70
2021/09/05 10:31:00;;;;;;;8.68;4.65;;;;;;;;;;4975382;28;20039;-71
2021/09/05 10:33:39;;;;;;;7.65;4.57;;;;;;;;;;4975291;28;20037;-69
2021/09/05 10:36:12;;;;;;;7.68;4.55;;;;;;;;;;4975427;28;20501;-69
2021/09/05 10:38:39;;;;;;;6.43;4.75;;;;;;;;;;4975663;28;20030;-70
2021/09/05 10:41:15;;;;;;;7.90;4.90;;;;;;;;;;4975940;28;20035;-69
2021/09/05 10:43:51;;;;;;;11.30;5.10;;;;;;;;;;4975733;28;20398;-65
2021/09/05 10:46:17;;;;;;;7.75;4.80;;;;;;;;;;4975008;28;20085;-69
2021/09/05 10:48:47;;;;;;;6.60;4.70;;;;;;;;;;4975022;28;20035;-66
2021/09/05 10:51:13;;;;;;;13.68;4.50;;;;;;;;;;4975799;28;20022;-70
2021/09/05 10:53:50;;;;;;;5.80;4.28;;;;;;;;;;4975961;28;20481;-66
2021/09/05 10:56:17;;;;;;;6.35;4.90;;;;;;;;;;4970317;28;20485;-63
2021/09/05 10:58:49;;;;;;;11.38;5.13;;;;;;;;;;4968325;28;20027;-64
2021/09/05 11:01:21;;;;;;;7.30;4.82;;;;;;;;;;4969718;28;20105;-67
2021/09/05 11:04:05;;;;;;;7.65;5.05;;;;;;;;;;4972910;28;20491;-80
2021/09/05 11:06:35;;;;;;;10.17;5.10;;;;;;;;;;4972522;28;20023;-79
2021/09/05 11:09:24;;;;;;;5.82;4.63;;;;;;;;;;4955070;28;20035;-73
2021/09/05 11:12:11;;;;;;;7.18;4.82;;;;;;;;;;4957951;28;20023;-72
2021/09/05 11:14:37;;;;;;;5.90;4.82;;;;;;;;;;4972673;28;20054;-78
2021/09/05 11:17:03;;;;;;;9.85;4.60;;;;;;;;;;4973745;28;20037;-77
2021/09/05 11:19:32;;;;;;;6.78;4.85;;;;;;;;;;4957012;28;20076;-77
2021/09/05 11:21:58;;;;;;;6.28;4.93;;;;;;;;;;4955356;28;20026;-83
2021/09/05 11:24:24;;;;;;;6.38;4.97;;;;;;;;;;4957356;28;20019;-74
2021/09/05 11:27:03;;;;;;;5.50;4.35;;;;;;;;;;4974486;28;20060;-71
2021/09/05 11:29:30;;;;;;;7.43;4.50;;;;;;;;;;4973644;28;20105;-77
2021/09/05 11:31:59;;;;;;;7.13;4.47;;;;;;;;;;4971313;28;20045;-74
2021/09/05 11:34:27;;;;;;;8.20;4.53;;;;;;;;;;4972294;28;20496;-65
2021/09/05 11:36:53;;;;;;;7.50;4.10;;;;;;;;;;4973864;28;20026;-68
2021/09/05 11:39:22;;;;;;;19.17;5.70;;;;;;;;;;4975016;28;20381;-71
2021/09/05 11:41:55;;;;;;;6.32;4.57;;;;;;;;;;4974801;28;20110;-75
2021/09/05 11:44:36;;;;;;;7.47;4.53;;;;;;;;;;4972966;28;20025;-67
2021/09/05 11:47:17;;;;;;;9.57;4.80;;;;;;;;;;4974329;28;20031;-65
2021/09/05 11:49:53;;;;;;;6.70;5.07;;;;;;;;;;4974645;28;20038;-62
2021/09/05 11:52:23;;;;;;;8.07;4.82;;;;;;;;;;4974444;28;20062;-64
2021/09/05 11:54:49;;;;;;;5.68;4.53;;;;;;;;;;4974936;28;20023;-64
2021/09/05 11:57:16;;;;;;;5.63;4.70;;;;;;;;;;4974467;28;20381;-69
2021/09/05 11:59:42;;;;;;;8.93;5.30;;;;;;;;;;4971303;28;20031;-66
2021/09/05 12:02:08;;;;;;;8.32;4.72;;;;;;;;;;4972624;28;20492;-63
2021/09/05 12:04:35;;;;;;;6.93;4.78;;;;;;;;;;4973937;28;20027;-67
2021/09/05 12:07:01;;;;;;;7.40;4.82;;;;;;;;;;4972772;28;20081;-69
2021/09/05 12:09:29;;;;;;;6.00;4.43;;;;;;;;;;4974282;28;20527;-70
2021/09/05 12:12:03;;;;;;;5.60;4.60;;;;;;;;;;4971206;28;20105;-67
2021/09/05 12:14:30;;;;;;;6.35;4.40;;;;;;;;;;4962762;28;20447;-65
2021/09/05 12:16:56;;;;;;;7.20;4.88;;;;;;;;;;4949858;28;20098;-64
2021/09/05 12:19:22;;;;;;;9.15;4.90;;;;;;;;;;4974300;28;20035;-80
2021/09/05 12:21:57;;;;;;;7.43;4.57;;;;;;;;;;4956359;28;20560;-68
2021/09/05 12:24:23;;;;;;;5.80;4.68;;;;;;;;;;4973794;28;20106;-68
2021/09/05 12:26:49;;;;;;;8.80;4.80;;;;;;;;;;4973439;28;20022;-70
2021/09/05 12:29:25;;;;;;;6.85;4.55;;;;;;;;;;4973314;28;20504;-71
2021/09/05 12:31:59;;;;;;;7.43;4.82;;;;;;;;;;4971698;28;20046;-81
2021/09/05 12:34:41;;;;;;;6.85;4.70;;;;;;;;;;4973710;28;20019;-69
2021/09/05 12:37:14;;;;;;;6.63;4.63;;;;;;;;;;4974017;28;20034;-76
2021/09/05 12:39:41;;;;;;;8.05;5.32;;;;;;;;;;4977955;28;20034;-68
2021/09/05 12:42:08;;;;;;;7.00;4.97;;;;;;;;;;4953897;28;20043;-66
2021/09/05 12:44:51;;;;;;;12.98;5.10;;;;;;;;;;4965190;28;20038;-67
2021/09/05 12:47:24;;;;;;;9.98;5.03;;;;;;;;;;4972992;28;20480;-73
2021/09/05 12:49:50;;;;;;;9.95;4.97;;;;;;;;;;4970235;28;20405;-69
2021/09/05 12:52:30;;;;;;;6.78;4.95;;;;;;;;;;4972381;28;20019;-74
2021/09/05 12:54:56;;;;;;;5.80;4.82;;;;;;;;;;4977591;28;20019;-65
2021/09/05 12:57:24;;;;;;;6.47;4.47;;;;;;;;;;4972137;28;20023;-79
2021/09/05 12:59:50;;;;;;;10.00;5.00;;;;;;;;;;4970643;28;20548;-67
2021/09/05 13:02:18;;;;;;;8.90;5.00;;;;;;;;;;4968520;28;20734;-69
2021/09/05 13:04:44;;;;;;;7.05;4.80;;;;;;;;;;4971738;28;20564;-68
2021/09/05 13:07:10;;;;;;;12.35;5.57;;;;;;;;;;4972625;28;20050;-65
2021/09/05 13:09:37;;;;;;;5.50;4.57;;;;;;;;;;4972810;28;20085;-66
2021/09/05 13:12:04;;;;;;;6.82;5.47;;;;;;;;;;4972438;28;20033;-63
2021/09/05 13:14:30;;;;;;;6.93;4.93;;;;;;;;;;4972477;28;20023;-68
2021/09/05 13:16:57;;;;;;;8.48;4.78;;;;;;;;;;4972010;28;20492;-68
2021/09/05 13:19:23;;;;;;;6.80;4.28;;;;;;;;;;4973392;28;20049;-74
2021/09/05 13:21:49;;;;;;;8.20;4.70;;;;;;;;;;4971140;28;20038;-64
2021/09/05 13:24:15;;;;;;;5.57;4.43;;;;;;;;;;4972259;28;20030;-68
2021/09/05 13:26:41;;;;;;;6.28;4.60;;;;;;;;;;4971508;28;20035;-75
2021/09/05 13:32:08;;;;;;;6.55;4.85;;;;;;;;;;4912172;29;20115;-70
2021/09/05 13:34:36;;;;;;;8.75;4.90;;;;;;;;;;4911613;29;20367;-70
2021/09/05 13:37:02;;;;;;;6.88;5.05;;;;;;;;;;4898075;29;20127;-67
2021/09/05 13:39:28;;;;;;;9.57;4.57;;;;;;;;;;4912776;29;20042;-74
2021/09/05 13:41:54;;;;;;;6.03;4.80;;;;;;;;;;4913566;29;20135;-73
2021/09/05 13:44:20;;;;;;;6.10;4.88;;;;;;;;;;4911174;29;20036;-69
2021/09/05 13:46:46;;;;;;;6.88;4.75;;;;;;;;;;4911947;29;20558;-75
2021/09/05 13:49:13;;;;;;;6.45;4.53;;;;;;;;;;4913733;29;20207;-68
2021/09/05 13:51:39;;;;;;;8.13;4.53;;;;;;;;;;4914536;29;20025;-67
2021/09/05 13:54:05;;;;;;;4.93;4.18;;;;;;;;;;4912605;29;20132;-67
2021/09/05 13:56:31;;;;;;;5.82;4.60;;;;;;;;;;4911588;29;20119;-69
2021/09/05 13:58:57;;;;;;;10.15;4.57;;;;;;;;;;4913123;29;20024;-67
2021/09/05 14:01:23;;;;;;;6.10;4.55;;;;;;;;;;4911327;29;20064;-74
2021/09/05 14:03:50;;;;;;;8.63;4.93;;;;;;;;;;4913246;29;20530;-80
2021/09/05 14:06:16;;;;;;;7.78;4.47;;;;;;;;;;4912893;29;20044;-79
2021/09/05 14:08:43;;;;;;;17.77;5.53;;;;;;;;;;4949129;28;20129;-83
2021/09/05 14:11:10;;;;;;;7.00;4.32;;;;;;;;;;4969547;28;20434;-77
2021/09/05 14:13:39;;;;;;;5.60;4.10;;;;;;;;;;4972305;28;20034;-68
2021/09/05 14:16:05;;;;;;;7.40;4.47;;;;;;;;;;4965575;28;20175;-64
2021/09/05 14:18:31;;;;;;;7.63;4.38;;;;;;;;;;4972565;28;20026;-71
2021/09/05 14:20:57;;;;;;;6.43;4.57;;;;;;;;;;4972042;28;20031;-65
2021/09/05 14:23:25;;;;;;;8.57;5.20;;;;;;;;;;4972081;28;20085;-64
2021/09/05 14:25:53;;;;;;;7.43;5.15;;;;;;;;;;4967275;28;20046;-65
2021/09/05 14:28:30;;;;;;;9.88;4.68;;;;;;;;;;4972222;28;20381;-83
2021/09/05 14:55:08;;;;;;;10.57;4.30;;;;;;;;;;4915295;29;20062;-69
2021/09/05 14:57:34;;;;;;;7.03;4.20;;;;;;;;;;4913874;29;20066;-73
2021/09/05 15:00:02;;;;;;;8.13;4.30;;;;;;;;;;4899380;29;20028;-71
2021/09/05 15:02:40;;;;;;;24.65;5.05;;;;;;;;;;4915637;29;20046;-70
2021/09/05 15:13:01;;;;;;;6.18;4.28;;;;;;;;;;4907064;29;20062;-86
2021/09/05 15:15:27;;;;;;;10.68;4.88;;;;;;;;;;4899686;29;20040;-87
2021/09/05 15:17:53;;;;;;;7.57;4.25;;;;;;;;;;4914270;29;20167;-90